Ship Status Report: callsign BATFR34

sailwx.info

Track history (hours):
 
Tides and Currents Weather Stations Pressure Air Temp Water Temp Dewpoint Dewpoint Depression Visibility Wind Speed Wind Dir Waves Ship Positions

Callsign BATFR34 (name unknown)

Last reported at 2016-Apr-11 07:00 UTC. Time now 2016-May-28 09:58 UTC.
Position N 47°48' W 004°24'.
Warning: this ship's position is 47 days out of date.

Wind from 200 at 13 knots

Barometer 1003.5 mb
Air temperature 10.2 ° C
Water temperature 12.0 ° C

Date/timePositionNaut miles runAvg speedWind from/ knotsBaromVisibWave heightAir tempDewpointWater temp
2016-Apr-11 07:00N 47°48' W 004°24'8 8.1 200 / 131003.5 10.2 12.0
2016-Apr-11 06:00N 47°48' W 004°36'8 8.1 190 / 121002.5 9.9 12.2
2016-Apr-11 05:00N 47°48' W 004°48'1413.5 190 / 121001.6 9.9 12.4
2016-Apr-11 04:00N 47°42' W 005°06'8 8.1 190 / 151001.1 9.7 12.2
2016-Apr-11 03:00N 47°42' W 005°18'8 8.1 180 / 121000.9 9.4 12.2
2016-Apr-11 02:00N 47°42' W 005°30'8 8.1 200 / 121000.5 8.9 12.2
2016-Apr-11 01:00N 47°42' W 005°42'16 8.1 180 / 121000.0 8.7 12.2
2016-Apr-10 23:00N 47°42' W 006°06'8 8.1 180 / 19999.1 8.4 12.4
2016-Apr-10 22:00N 47°42' W 006°18'8 8.1 190 / 11997.8 10.2 12.4
2016-Apr-10 21:00N 47°42' W 006°30'8 8.1 200 / 13997.1 10.4 12.4
2016-Apr-10 20:00N 47°42' W 006°42'8 8.1 210 / 15996.1 10.2 12.4
2016-Apr-10 19:00N 47°42' W 006°54'4 4.0 210 / 16995.4 10.2 12.5
2016-Apr-10 18:00N 47°42' W 007°00'4 4.0 180 / 13994.6 10.2 12.7
2016-Apr-10 17:00N 47°42' W 007°06'4 4.0 190 / 12993.5 9.7 12.5
2016-Apr-10 16:00N 47°42' W 007°12'0 0.0 200 / 17992.7 11.5 12.5
2016-Apr-10 15:00N 47°42' W 007°12'4 4.0 210 / 16992.0 14.2 12.5
2016-Apr-10 14:00N 47°42' W 007°18'7 3.6 180 / 12991.4 9.2 12.5
2016-Apr-10 12:00N 47°36' W 007°12'0 0.0 180 / 9991.0 7.7 12.5
2016-Apr-10 11:00N 47°36' W 007°12'4 4.0 160 / 9990.8 8.0 12.7
2016-Apr-10 10:00N 47°36' W 007°06'4 4.0 170 / 14990.8 7.9 12.7
2016-Apr-10 09:00N 47°36' W 007°00'0 0.0 160 / 12990.6 1.1 8.0 12.5
2016-Apr-10 08:00N 47°36' W 007°00'7 7.2 170 / 15990.7 8.4 12.7
2016-Apr-10 07:00N 47°42' W 007°06'0 0.0 160 / 18990.6 9.2 12.5
2016-Apr-10 06:00N 47°42' W 007°06'4 4.0 150 / 16990.5 9.7 12.5
2016-Apr-10 05:00N 47°42' W 007°12'4 4.0 160 / 15990.1 9.5 12.5
2016-Apr-10 04:00N 47°42' W 007°18'0 0.0 180 / 16990.9 9.4 12.5
2016-Apr-10 03:00N 47°42' W 007°18'0 0.0 230 / 16992.1 9.2 12.7
2016-Apr-10 02:00N 47°42' W 007°18'7 7.2 210 / 20992.5 8.7 12.5
2016-Apr-10 01:00N 47°36' W 007°12'0 0.0 200 / 21993.8 7.7 12.5
2016-Apr-10 00:00N 47°36' W 007°12'6 6.0 190 / 23994.8 8.9 12.5
2016-Apr-09 23:00N 47°42' W 007°12'0 0.0 190 / 23996.6 8.9 12.7
2016-Apr-09 22:00N 47°42' W 007°12'0 0.0 200 / 22997.6 9.7 12.5
2016-Apr-09 21:00N 47°42' W 007°12'4 4.0 210 / 22999.3 8.7 12.5
2016-Apr-09 20:00N 47°42' W 007°18'0 0.0 200 / 221000.4 9.0 12.5
2016-Apr-09 19:00N 47°42' W 007°18'7 7.2 170 / 151001.7 8.2 12.5
2016-Apr-09 18:00N 47°48' W 007°24'0 0.0 190 / 131002.7 8.4 12.5
2016-Apr-09 17:00N 47°48' W 007°24'0 0.0 240 / 181003.0 9.0 12.7
2016-Apr-09 16:00N 47°48' W 007°24'6 6.0 260 / 191004.3 8.2 12.7
2016-Apr-09 15:00N 47°42' W 007°24'8 4.0 250 / 261005.2 7.5 12.5
2016-Apr-09 13:00N 47°42' W 007°12'6 3.0 260 / 171006.9 8.9 12.5
2016-Apr-09 11:00N 47°48' W 007°12'4 4.0 300 / 161007.8 8.5 12.4
2016-Apr-09 10:00N 47°48' W 007°06'6 6.0 270 / 191008.0 8.4 12.4
2016-Apr-09 09:00N 47°54' W 007°06'7 7.2 290 / 141008.1 7.2 12.4
2016-Apr-09 08:00N 48°00' W 007°00'0 0.0 280 / 191008.0 6.7 12.2
2016-Apr-09 07:00N 48°00' W 007°00'4 4.0 320 / 241008.0 6.4 12.2
2016-Apr-09 06:00N 48°00' W 007°06'7 7.2 310 / 191007.8 7.9 12.4
2016-Apr-09 05:00N 47°54' W 007°12'0 0.0 310 / 191008.1 7.9 12.4
2016-Apr-09 04:00N 47°54' W 007°12'4 4.0 300 / 211009.0 7.4 12.4
2016-Apr-09 03:00N 47°54' W 007°18'4 4.0 300 / 161008.9 8.7 12.4
2016-Apr-09 02:00N 47°54' W 007°24'6 6.0 280 / 201009.9 8.9 12.4
2016-Apr-09 01:00N 47°48' W 007°24'0 0.0 270 / 181011.0 9.4 12.4
2016-Apr-09 00:00N 47°48' W 007°24'7 7.2 260 / 201011.8 9.4 12.4
2016-Apr-08 23:00N 47°42' W 007°18'4 4.0 290 / 151012.5 9.7 12.5
2016-Apr-08 22:00N 47°42' W 007°12'6 6.0 280 / 171012.9 9.7 12.4
2016-Apr-08 21:00N 47°48' W 007°12'7 3.6 320 / 221012.8 9.7 12.5
2016-Apr-08 19:00N 47°54' W 007°06'0 0.0 310 / 221011.9 11.2 12.4
2016-Apr-08 18:00N 47°54' W 007°06'4 4.0 230 / 171011.4 11.2 12.4
2016-Apr-08 17:00N 47°54' W 007°12'4 4.0 240 / 201012.2 16.4 12.4
2016-Apr-08 16:00N 47°54' W 007°18'7 3.6 240 / 141013.4 10.5 12.4
2016-Apr-08 14:00N 47°48' W 007°24'6 6.0 250 / 171015.3 10.7 12.5
2016-Apr-08 13:00N 47°42' W 007°24'4 4.0 230 / 161016.8 10.9 12.5
2016-Apr-08 12:00N 47°42' W 007°18'0 0.0 230 / 151018.1 10.7 12.5
2016-Apr-08 10:00N 47°42' W 007°18'4 4.0 290 / 121019.4 10.0 12.5
2016-Apr-08 09:00N 47°42' W 007°24'6 6.0 300 / 151019.7 17.4 12.5
2016-Apr-08 08:00N 47°48' W 007°24'6 6.0 300 / 121019.4 10.7 12.5
2016-Apr-08 07:00N 47°54' W 007°24'0 0.0 290 / 91019.6 9.9 12.5
2016-Apr-08 06:00N 47°54' W 007°24'0 0.0 290 / 111019.8 9.9 12.4
2016-Apr-08 04:00N 47°54' W 007°24'12 4.0 340 / 131020.4 9.7 12.5
2016-Apr-08 01:00N 47°42' W 007°24'4 2.0 330 / 131021.8 9.9 12.5
2016-Apr-07 23:00N 47°42' W 007°18'4 4.0 310 / 151022.6 9.9 12.5
2016-Apr-07 22:00N 47°42' W 007°12'4 2.0 300 / 161022.9 10.0 12.5
2016-Apr-07 20:00N 47°42' W 007°06'6 6.0 340 / 191023.0 13.4 12.5
2016-Apr-07 19:00N 47°48' W 007°06'6 6.0 330 / 191022.3 22.4 12.4
2016-Apr-07 18:00N 47°54' W 007°06'4 4.0 310 / 201021.5 12.5 12.4
2016-Apr-07 17:00N 47°54' W 007°12'8 4.0 320 / 201020.9 9.9 12.4
2016-Apr-07 15:00N 47°54' W 007°24'6 6.0 350 / 181021.1 9.9 12.5
2016-Apr-07 14:00N 47°48' W 007°24'6 3.0 350 / 181021.3 9.9 12.5
2016-Apr-07 12:00N 47°42' W 007°24'4 4.0 320 / 211021.4 9.2 12.5
2016-Apr-07 11:00N 47°42' W 007°18'4 4.0 330 / 161021.6 9.4 12.5
2016-Apr-07 10:00N 47°42' W 007°12'4 2.0 320 / 171021.4 9.4 12.5
2016-Apr-07 08:00N 47°42' W 007°06'0 0.0 310 / 131020.9 8.9 12.4
2016-Apr-07 07:00N 47°42' W 007°06'4 4.0 340 / 161020.8 8.7 12.5
2016-Apr-07 06:00N 47°42' W 007°12'0 0.0 320 / 151020.2 8.9 12.5
2016-Apr-07 05:00N 47°42' W 007°12'10 5.0 340 / 241019.9 8.2 12.5
2016-Apr-07 03:00N 47°48' W 007°24'6 6.0 320 / 181019.5 9.2 12.5
2016-Apr-07 02:00N 47°42' W 007°24'4 4.0 330 / 151020.3 8.5 12.5
2016-Apr-07 01:00N 47°42' W 007°18'6 6.0 320 / 161020.5 9.2 12.5
2016-Apr-07 00:00N 47°36' W 007°18'7 3.6 330 / 191021.1 9.4 12.5
2016-Apr-06 22:00N 47°42' W 007°12'4 4.0 310 / 201021.3 9.7 12.5
2016-Apr-06 21:00N 47°42' W 007°06'4 4.0 290 / 171021.0 10.2 12.5
2016-Apr-06 20:00N 47°42' W 007°00'0 0.0 260 / 201020.9 10.0 12.5
2016-Apr-06 19:00N 47°42' W 007°00'4 4.0 340 / 191020.4 10.4 12.7
2016-Apr-06 18:00N 47°42' W 007°06'0 0.0 310 / 191020.0 11.2 12.7
2016-Apr-06 17:00N 47°42' W 007°06'0 0.0 290 / 201019.5 10.7 12.5
2016-Apr-06 16:00N 47°42' W 007°06'4 4.0 320 / 151019.7 10.4 12.7
2016-Apr-06 15:00N 47°42' W 007°12'4 4.0 310 / 191019.6 10.9 12.7
2016-Apr-06 14:00N 47°42' W 007°18'0 0.0 300 / 161019.8 11.2 12.7
2016-Apr-06 13:00N 47°42' W 007°18'0 0.0 330 / 181019.7 11.0 12.7
2016-Apr-06 12:00N 47°42' W 007°18'0 0.0 300 / 171019.5 11.4 12.7
2016-Apr-06 11:00N 47°42' W 007°18'8 4.0 310 / 151019.4 11.2 12.7
2016-Apr-06 09:00N 47°42' W 007°06'4 4.0 290 / 151018.9 11.2 12.5
2016-Apr-06 08:00N 47°42' W 007°00'0 0.0 290 / 181018.2 11.2 12.5
2016-Apr-06 07:00N 47°42' W 007°00'4 4.0 360 / 181017.9 10.7 12.7
2016-Apr-06 06:00N 47°42' W 007°06'4 2.0 330 / 141017.0 11.5 12.7
2016-Apr-06 04:00N 47°42' W 007°12'4 4.0 250 / 191015.7 13.2 12.7
2016-Apr-06 03:00N 47°42' W 007°18'0 0.0 230 / 171015.6 11.2 12.7
2016-Apr-06 02:00N 47°42' W 007°18'4 2.0 250 / 181016.1 11.2 12.7
2016-Apr-06 00:00N 47°42' W 007°12'4 2.0 280 / 161017.2 11.2 12.7
2016-Apr-05 22:00N 47°42' W 007°06'4 4.0 260 / 141018.1 11.2 12.7
2016-Apr-05 21:00N 47°42' W 007°00'6 6.0 230 / 141017.8 11.2 12.7
2016-Apr-05 20:00N 47°36' W 007°00'0 0.0 220 / 151017.7 11.4 12.7
2016-Apr-05 19:00N 47°36' W 007°00'0 0.0 280 / 131017.3 18.0 12.9
2016-Apr-05 18:00N 47°36' W 007°00'7 7.2 280 / 111016.8 16.9 12.9
2016-Apr-05 17:00N 47°42' W 007°06'0 0.0 280 / 131016.1 12.0 12.9
2016-Apr-05 16:00N 47°42' W 007°06'4 4.0 270 / 121015.8 12.9 12.9
2016-Apr-05 15:00N 47°42' W 007°12'0 0.0 280 / 81015.6 11.4 12.9
2016-Apr-05 13:00N 47°42' W 007°12'0 0.0 320 / 101015.3 11.0 12.7
2016-Apr-05 12:00N 47°42' W 007°12'14 0.5 340 / 91015.1 10.9 12.7
2016-Apr-04 07:00N 47°36' W 006°54'4 4.0 290 / 71001.0 11.0 12.5
2016-Apr-04 06:00N 47°36' W 007°00'4 2.0 260 / 121000.2 10.9 12.5
2016-Apr-04 04:00N 47°36' W 006°54'4 4.0 260 / 13999.2 10.7 12.5
2016-Apr-04 03:00N 47°36' W 006°48'4 4.0 300 / 14999.2 10.9 12.4
2016-Apr-04 02:00N 47°36' W 006°54'4 4.0 290 / 12999.3 10.7 12.4
2016-Apr-04 01:00N 47°36' W 007°00'0 0.0 280 / 16998.8 11.0 12.5
2016-Apr-04 00:00N 47°36' W 007°00'4 4.0 250 / 15998.6 11.0 12.5
2016-Apr-03 23:00N 47°36' W 006°54'0 0.0 250 / 15998.8 10.9 12.5
2016-Apr-03 22:00N 47°36' W 006°54'4 4.0 260 / 10998.8 10.9 12.5
2016-Apr-03 21:00N 47°36' W 006°48'4 4.0 220 / 4998.6 10.0 12.5
2016-Apr-03 20:00N 47°36' W 006°54'0 0.0 200 / 7998.6 10.5 12.5
2016-Apr-03 19:00N 47°36' W 006°54'4 4.0 210 / 8998.3 10.7 12.5
2016-Apr-03 18:00N 47°36' W 007°00'4 4.0 170 / 15998.3 10.5 12.5
2016-Apr-03 17:00N 47°36' W 006°54'0 0.0 170 / 15998.5 11.2 12.5
2016-Apr-03 15:00N 47°36' W 006°54'0 0.0 210 / 17998.9 12.7 12.7
2016-Apr-03 14:00N 47°36' W 006°54'4 2.0 180 / 16998.8 10.5 12.7
2016-Apr-03 12:00N 47°36' W 006°48'0 0.0 200 / 20999.0 11.4 12.5
2016-Apr-03 11:00N 47°36' W 006°48'4 4.0 180 / 16999.5 10.9 12.5
2016-Apr-03 10:00N 47°36' W 006°42'4 4.0 180 / 18999.6 11.2 12.5
2016-Apr-03 09:00N 47°36' W 006°36'0 0.0 170 / 17999.7 11.4 12.7
2016-Apr-03 08:00N 47°36' W 006°36'7 7.2 200 / 151000.2 11.5 12.4
2016-Apr-03 07:00N 47°30' W 006°30'0 0.0 190 / 161000.4 11.0 12.5
2016-Apr-03 06:00N 47°30' W 006°30'7 3.6 170 / 171000.5 10.2 12.5
2016-Apr-03 04:00N 47°24' W 006°24'4 4.1 180 / 16999.5 10.7 12.5
2016-Apr-03 03:00N 47°24' W 006°18'4 4.1 160 / 181000.1 11.7 12.7
2016-Apr-03 02:00N 47°24' W 006°12'0 0.0 170 / 141001.1 11.7 12.7
2016-Apr-03 01:00N 47°24' W 006°12'7 7.2 180 / 131001.8 11.4 12.7
2016-Apr-03 00:00N 47°18' W 006°06'0 0.0 190 / 191002.1 11.4 12.7
2016-Apr-02 23:00N 47°18' W 006°06'4 4.1 180 / 171002.9 11.7 12.5
2016-Apr-02 22:00N 47°18' W 006°00'0 0.0 170 / 221003.2 11.4 12.7
2016-Apr-02 21:00N 47°18' W 006°00'4 4.1 160 / 171003.6 11.4 12.7
2016-Apr-02 20:00N 47°18' W 005°54'4 4.1 150 / 151004.0 11.4 12.7
2016-Apr-02 19:00N 47°18' W 006°00'0 0.0 140 / 151004.1 10.9 12.7
2016-Apr-02 18:00N 47°18' W 006°00'0 0.0 170 / 191004.3 10.4 12.7
2016-Apr-02 16:00N 47°18' W 006°00'0 0.0 190 / 151005.3 9.9 12.7
2016-Apr-02 14:00N 47°18' W 006°00'0 0.0 170 / 121006.5 11.2 12.5
2016-Apr-02 13:00N 47°18' W 006°00'4 2.0 170 / 151007.0 11.2 12.7
2016-Apr-02 11:00N 47°18' W 005°54'4 4.1 170 / 151008.4 10.9 12.7
2016-Apr-02 10:00N 47°18' W 006°00'0 0.0 160 / 141009.2 11.2 12.7
2016-Apr-02 09:00N 47°18' W 006°00'0 0.0 170 / 141009.5 10.9 12.7
2016-Apr-02 08:00N 47°18' W 006°00'0 0.0 180 / 141009.7 11.0 12.7
2016-Apr-02 07:00N 47°18' W 006°00'4 4.1 180 / 151009.8 11.0 12.5
2016-Apr-02 06:00N 47°18' W 006°06'4 4.1 180 / 151009.6 11.2 12.7
2016-Apr-02 05:00N 47°18' W 006°12'8 4.1 190 / 171009.8 11.2 12.7
2016-Apr-02 03:00N 47°18' W 006°00'4 1.4 190 / 171011.5 11.7 12.5
2016-Apr-02 00:00N 47°18' W 005°54'4 4.1 190 / 171013.5 11.0 12.7
2016-Apr-01 23:00N 47°18' W 006°00'4 4.1 190 / 171014.1 11.0 12.5
2016-Apr-01 22:00N 47°18' W 006°06'4 2.0 170 / 191014.7 10.9 12.7
2016-Apr-01 20:00N 47°18' W 006°00'0 0.0 200 / 181015.4 11.0 12.7
2016-Apr-01 19:00N 47°18' W 006°00'0 0.0 180 / 161015.5 10.9 12.7
2016-Apr-01 18:00N 47°18' W 006°00'4 2.0 190 / 191015.7 11.2 12.5
2016-Apr-01 16:00N 47°18' W 006°06'0 0.0 200 / 161016.7 10.9 12.7
2016-Apr-01 15:00N 47°18' W 006°06'4 4.1 210 / 181017.6 11.0 12.7
2016-Apr-01 14:00N 47°18' W 006°12'4 4.1 200 / 171018.0 11.0 12.7
2016-Apr-01 13:00N 47°18' W 006°06'0 0.0 190 / 191018.8 11.0 12.7
2016-Apr-01 12:00N 47°18' W 006°06'4 4.1 200 / 181019.4 10.9 12.7
2016-Apr-01 11:00N 47°18' W 006°00'0 0.0 200 / 181019.9 10.9 12.5
2016-Apr-01 10:00N 47°18' W 006°00'0 0.0 190 / 181020.4 10.7 12.5
2016-Apr-01 09:00N 47°18' W 006°00'4 4.1 200 / 161020.6 10.7 12.7
2016-Apr-01 08:00N 47°18' W 005°54'4 4.1 200 / 141020.9 10.4 12.7
2016-Apr-01 07:00N 47°18' W 006°00'   200 / 131020.8 10.2 12.7
Track history (hours):
 
Tides and Currents Weather Stations Pressure Air Temp Water Temp Dewpoint Dewpoint Depression Visibility Wind Speed Wind Dir Waves Ship Positions

Callsign BATFR34 (name unknown)

Last reported at 2016-Apr-11 07:00 UTC. Time now 2016-May-28 09:58 UTC.
Position N 47°48' W 004°24'.
Warning: this ship's position is 47 days out of date.

Wind from 200 at 13 knots

Barometer 1003.5 mb
Air temperature 10.2 ° C
Water temperature 12.0 ° C

Date/timePositionNaut miles runAvg speedWind from/ knotsBaromVisibWave heightAir tempDewpointWater temp
2016-Apr-11 07:00N 47°48' W 004°24'8 8.1 200 / 131003.5 10.2 12.0
2016-Apr-11 06:00N 47°48' W 004°36'8 8.1 190 / 121002.5 9.9 12.2
2016-Apr-11 05:00N 47°48' W 004°48'1413.5 190 / 121001.6 9.9 12.4
2016-Apr-11 04:00N 47°42' W 005°06'8 8.1 190 / 151001.1 9.7 12.2
2016-Apr-11 03:00N 47°42' W 005°18'8 8.1 180 / 121000.9 9.4 12.2
2016-Apr-11 02:00N 47°42' W 005°30'8 8.1 200 / 121000.5 8.9 12.2
2016-Apr-11 01:00N 47°42' W 005°42'16 8.1 180 / 121000.0 8.7 12.2
2016-Apr-10 23:00N 47°42' W 006°06'8 8.1 180 / 19999.1 8.4 12.4
2016-Apr-10 22:00N 47°42' W 006°18'8 8.1 190 / 11997.8 10.2 12.4
2016-Apr-10 21:00N 47°42' W 006°30'8 8.1 200 / 13997.1 10.4 12.4
2016-Apr-10 20:00N 47°42' W 006°42'8 8.1 210 / 15996.1 10.2 12.4
2016-Apr-10 19:00N 47°42' W 006°54'4 4.0 210 / 16995.4 10.2 12.5
2016-Apr-10 18:00N 47°42' W 007°00'4 4.0 180 / 13994.6 10.2 12.7
2016-Apr-10 17:00N 47°42' W 007°06'4 4.0 190 / 12993.5 9.7 12.5
2016-Apr-10 16:00N 47°42' W 007°12'0 0.0 200 / 17992.7 11.5 12.5
2016-Apr-10 15:00N 47°42' W 007°12'4 4.0 210 / 16992.0 14.2 12.5
2016-Apr-10 14:00N 47°42' W 007°18'7 3.6 180 / 12991.4 9.2 12.5
2016-Apr-10 12:00N 47°36' W 007°12'0 0.0 180 / 9991.0 7.7 12.5
2016-Apr-10 11:00N 47°36' W 007°12'4 4.0 160 / 9990.8 8.0 12.7
2016-Apr-10 10:00N 47°36' W 007°06'4 4.0 170 / 14990.8 7.9 12.7
2016-Apr-10 09:00N 47°36' W 007°00'0 0.0 160 / 12990.6 1.1 8.0 12.5
2016-Apr-10 08:00N 47°36' W 007°00'7 7.2 170 / 15990.7 8.4 12.7
2016-Apr-10 07:00N 47°42' W 007°06'0 0.0 160 / 18990.6 9.2 12.5
2016-Apr-10 06:00N 47°42' W 007°06'4 4.0 150 / 16990.5 9.7 12.5
2016-Apr-10 05:00N 47°42' W 007°12'4 4.0 160 / 15990.1 9.5 12.5
2016-Apr-10 04:00N 47°42' W 007°18'0 0.0 180 / 16990.9 9.4 12.5
2016-Apr-10 03:00N 47°42' W 007°18'0 0.0 230 / 16992.1 9.2 12.7
2016-Apr-10 02:00N 47°42' W 007°18'7 7.2 210 / 20992.5 8.7 12.5
2016-Apr-10 01:00N 47°36' W 007°12'0 0.0 200 / 21993.8 7.7 12.5
2016-Apr-10 00:00N 47°36' W 007°12'6 6.0 190 / 23994.8 8.9 12.5
2016-Apr-09 23:00N 47°42' W 007°12'0 0.0 190 / 23996.6 8.9 12.7
2016-Apr-09 22:00N 47°42' W 007°12'0 0.0 200 / 22997.6 9.7 12.5
2016-Apr-09 21:00N 47°42' W 007°12'4 4.0 210 / 22999.3 8.7 12.5
2016-Apr-09 20:00N 47°42' W 007°18'0 0.0 200 / 221000.4 9.0 12.5
2016-Apr-09 19:00N 47°42' W 007°18'7 7.2 170 / 151001.7 8.2 12.5
2016-Apr-09 18:00N 47°48' W 007°24'0 0.0 190 / 131002.7 8.4 12.5
2016-Apr-09 17:00N 47°48' W 007°24'0 0.0 240 / 181003.0 9.0 12.7
2016-Apr-09 16:00N 47°48' W 007°24'6 6.0 260 / 191004.3 8.2 12.7
2016-Apr-09 15:00N 47°42' W 007°24'8 4.0 250 / 261005.2 7.5 12.5
2016-Apr-09 13:00N 47°42' W 007°12'6 3.0 260 / 171006.9 8.9 12.5
2016-Apr-09 11:00N 47°48' W 007°12'4 4.0 300 / 161007.8 8.5 12.4
2016-Apr-09 10:00N 47°48' W 007°06'6 6.0 270 / 191008.0 8.4 12.4
2016-Apr-09 09:00N 47°54' W 007°06'7 7.2 290 / 141008.1 7.2 12.4
2016-Apr-09 08:00N 48°00' W 007°00'0 0.0 280 / 191008.0 6.7 12.2
2016-Apr-09 07:00N 48°00' W 007°00'4 4.0 320 / 241008.0 6.4 12.2
2016-Apr-09 06:00N 48°00' W 007°06'7 7.2 310 / 191007.8 7.9 12.4
2016-Apr-09 05:00N 47°54' W 007°12'0 0.0 310 / 191008.1 7.9 12.4
2016-Apr-09 04:00N 47°54' W 007°12'4 4.0 300 / 211009.0 7.4 12.4
2016-Apr-09 03:00N 47°54' W 007°18'4 4.0 300 / 161008.9 8.7 12.4
2016-Apr-09 02:00N 47°54' W 007°24'6 6.0 280 / 201009.9 8.9 12.4
2016-Apr-09 01:00N 47°48' W 007°24'0 0.0 270 / 181011.0 9.4 12.4
2016-Apr-09 00:00N 47°48' W 007°24'7 7.2 260 / 201011.8 9.4 12.4
2016-Apr-08 23:00N 47°42' W 007°18'4 4.0 290 / 151012.5 9.7 12.5
2016-Apr-08 22:00N 47°42' W 007°12'6 6.0 280 / 171012.9 9.7 12.4
2016-Apr-08 21:00N 47°48' W 007°12'7 3.6 320 / 221012.8 9.7 12.5
2016-Apr-08 19:00N 47°54' W 007°06'0 0.0 310 / 221011.9 11.2 12.4
2016-Apr-08 18:00N 47°54' W 007°06'4 4.0 230 / 171011.4 11.2 12.4
2016-Apr-08 17:00N 47°54' W 007°12'4 4.0 240 / 201012.2 16.4 12.4
2016-Apr-08 16:00N 47°54' W 007°18'7 3.6 240 / 141013.4 10.5 12.4
2016-Apr-08 14:00N 47°48' W 007°24'6 6.0 250 / 171015.3 10.7 12.5
2016-Apr-08 13:00N 47°42' W 007°24'4 4.0 230 / 161016.8 10.9 12.5
2016-Apr-08 12:00N 47°42' W 007°18'0 0.0 230 / 151018.1 10.7 12.5
2016-Apr-08 10:00N 47°42' W 007°18'4 4.0 290 / 121019.4 10.0 12.5
2016-Apr-08 09:00N 47°42' W 007°24'6 6.0 300 / 151019.7 17.4 12.5
2016-Apr-08 08:00N 47°48' W 007°24'6 6.0 300 / 121019.4 10.7 12.5
2016-Apr-08 07:00N 47°54' W 007°24'0 0.0 290 / 91019.6 9.9 12.5
2016-Apr-08 06:00N 47°54' W 007°24'0 0.0 290 / 111019.8 9.9 12.4
2016-Apr-08 04:00N 47°54' W 007°24'12 4.0 340 / 131020.4 9.7 12.5
2016-Apr-08 01:00N 47°42' W 007°24'4 2.0 330 / 131021.8 9.9 12.5
2016-Apr-07 23:00N 47°42' W 007°18'4 4.0 310 / 151022.6 9.9 12.5
2016-Apr-07 22:00N 47°42' W 007°12'4 2.0 300 / 161022.9 10.0 12.5
2016-Apr-07 20:00N 47°42' W 007°06'6 6.0 340 / 191023.0 13.4 12.5
2016-Apr-07 19:00N 47°48' W 007°06'6 6.0 330 / 191022.3 22.4 12.4
2016-Apr-07 18:00N 47°54' W 007°06'4 4.0 310 / 201021.5 12.5 12.4
2016-Apr-07 17:00N 47°54' W 007°12'8 4.0 320 / 201020.9 9.9 12.4
2016-Apr-07 15:00N 47°54' W 007°24'6 6.0 350 / 181021.1 9.9 12.5
2016-Apr-07 14:00N 47°48' W 007°24'6 3.0 350 / 181021.3 9.9 12.5
2016-Apr-07 12:00N 47°42' W 007°24'4 4.0 320 / 211021.4 9.2 12.5
2016-Apr-07 11:00N 47°42' W 007°18'4 4.0 330 / 161021.6 9.4 12.5
2016-Apr-07 10:00N 47°42' W 007°12'4 2.0 320 / 171021.4 9.4 12.5
2016-Apr-07 08:00N 47°42' W 007°06'0 0.0 310 / 131020.9 8.9 12.4
2016-Apr-07 07:00N 47°42' W 007°06'4 4.0 340 / 161020.8 8.7 12.5
2016-Apr-07 06:00N 47°42' W 007°12'0 0.0 320 / 151020.2 8.9 12.5
2016-Apr-07 05:00N 47°42' W 007°12'10 5.0 340 / 241019.9 8.2 12.5
2016-Apr-07 03:00N 47°48' W 007°24'6 6.0 320 / 181019.5 9.2 12.5
2016-Apr-07 02:00N 47°42' W 007°24'4 4.0 330 / 151020.3 8.5 12.5
2016-Apr-07 01:00N 47°42' W 007°18'6 6.0 320 / 161020.5 9.2 12.5
2016-Apr-07 00:00N 47°36' W 007°18'7 3.6 330 / 191021.1 9.4 12.5
2016-Apr-06 22:00N 47°42' W 007°12'4 4.0 310 / 201021.3 9.7 12.5
2016-Apr-06 21:00N 47°42' W 007°06'4 4.0 290 / 171021.0 10.2 12.5
2016-Apr-06 20:00N 47°42' W 007°00'0 0.0 260 / 201020.9 10.0 12.5
2016-Apr-06 19:00N 47°42' W 007°00'4 4.0 340 / 191020.4 10.4 12.7
2016-Apr-06 18:00N 47°42' W 007°06'0 0.0 310 / 191020.0 11.2 12.7
2016-Apr-06 17:00N 47°42' W 007°06'0 0.0 290 / 201019.5 10.7 12.5
2016-Apr-06 16:00N 47°42' W 007°06'4 4.0 320 / 151019.7 10.4 12.7
2016-Apr-06 15:00N 47°42' W 007°12'4 4.0 310 / 191019.6 10.9 12.7
2016-Apr-06 14:00N 47°42' W 007°18'0 0.0 300 / 161019.8 11.2 12.7
2016-Apr-06 13:00N 47°42' W 007°18'0 0.0 330 / 181019.7 11.0 12.7
2016-Apr-06 12:00N 47°42' W 007°18'0 0.0 300 / 171019.5 11.4 12.7
2016-Apr-06 11:00N 47°42' W 007°18'8 4.0 310 / 151019.4 11.2 12.7
2016-Apr-06 09:00N 47°42' W 007°06'4 4.0 290 / 151018.9 11.2 12.5
2016-Apr-06 08:00N 47°42' W 007°00'0 0.0 290 / 181018.2 11.2 12.5
2016-Apr-06 07:00N 47°42' W 007°00'4 4.0 360 / 181017.9 10.7 12.7
2016-Apr-06 06:00N 47°42' W 007°06'4 2.0 330 / 141017.0 11.5 12.7
2016-Apr-06 04:00N 47°42' W 007°12'4 4.0 250 / 191015.7 13.2 12.7
2016-Apr-06 03:00N 47°42' W 007°18'0 0.0 230 / 171015.6 11.2 12.7
2016-Apr-06 02:00N 47°42' W 007°18'4 2.0 250 / 181016.1 11.2 12.7
2016-Apr-06 00:00N 47°42' W 007°12'4 2.0 280 / 161017.2 11.2 12.7
2016-Apr-05 22:00N 47°42' W 007°06'4 4.0 260 / 141018.1 11.2 12.7
2016-Apr-05 21:00N 47°42' W 007°00'6 6.0 230 / 141017.8 11.2 12.7
2016-Apr-05 20:00N 47°36' W 007°00'0 0.0 220 / 151017.7 11.4 12.7
2016-Apr-05 19:00N 47°36' W 007°00'0 0.0 280 / 131017.3 18.0 12.9
2016-Apr-05 18:00N 47°36' W 007°00'7 7.2 280 / 111016.8 16.9 12.9
2016-Apr-05 17:00N 47°42' W 007°06'0 0.0 280 / 131016.1 12.0 12.9
2016-Apr-05 16:00N 47°42' W 007°06'4 4.0 270 / 121015.8 12.9 12.9
2016-Apr-05 15:00N 47°42' W 007°12'0 0.0 280 / 81015.6 11.4 12.9
2016-Apr-05 13:00N 47°42' W 007°12'0 0.0 320 / 101015.3 11.0 12.7
2016-Apr-05 12:00N 47°42' W 007°12'14 0.5 340 / 91015.1 10.9 12.7
2016-Apr-04 07:00N 47°36' W 006°54'4 4.0 290 / 71001.0 11.0 12.5
2016-Apr-04 06:00N 47°36' W 007°00'4 2.0 260 / 121000.2 10.9 12.5
2016-Apr-04 04:00N 47°36' W 006°54'4 4.0 260 / 13999.2 10.7 12.5
2016-Apr-04 03:00N 47°36' W 006°48'4 4.0 300 / 14999.2 10.9 12.4
2016-Apr-04 02:00N 47°36' W 006°54'4 4.0 290 / 12999.3 10.7 12.4
2016-Apr-04 01:00N 47°36' W 007°00'0 0.0 280 / 16998.8 11.0 12.5
2016-Apr-04 00:00N 47°36' W 007°00'4 4.0 250 / 15998.6 11.0 12.5
2016-Apr-03 23:00N 47°36' W 006°54'0 0.0 250 / 15998.8 10.9 12.5
2016-Apr-03 22:00N 47°36' W 006°54'4 4.0 260 / 10998.8 10.9 12.5
2016-Apr-03 21:00N 47°36' W 006°48'4 4.0 220 / 4998.6 10.0 12.5
2016-Apr-03 20:00N 47°36' W 006°54'0 0.0 200 / 7998.6 10.5 12.5
2016-Apr-03 19:00N 47°36' W 006°54'4 4.0 210 / 8998.3 10.7 12.5
2016-Apr-03 18:00N 47°36' W 007°00'4 4.0 170 / 15998.3 10.5 12.5
2016-Apr-03 17:00N 47°36' W 006°54'0 0.0 170 / 15998.5 11.2 12.5
2016-Apr-03 15:00N 47°36' W 006°54'0 0.0 210 / 17998.9 12.7 12.7
2016-Apr-03 14:00N 47°36' W 006°54'4 2.0 180 / 16998.8 10.5 12.7
2016-Apr-03 12:00N 47°36' W 006°48'0 0.0 200 / 20999.0 11.4 12.5
2016-Apr-03 11:00N 47°36' W 006°48'4 4.0 180 / 16999.5 10.9 12.5
2016-Apr-03 10:00N 47°36' W 006°42'4 4.0 180 / 18999.6 11.2 12.5
2016-Apr-03 09:00N 47°36' W 006°36'0 0.0 170 / 17999.7 11.4 12.7
2016-Apr-03 08:00N 47°36' W 006°36'7 7.2 200 / 151000.2 11.5 12.4
2016-Apr-03 07:00N 47°30' W 006°30'0 0.0 190 / 161000.4 11.0 12.5
2016-Apr-03 06:00N 47°30' W 006°30'7 3.6 170 / 171000.5 10.2 12.5
2016-Apr-03 04:00N 47°24' W 006°24'4 4.1 180 / 16999.5 10.7 12.5
2016-Apr-03 03:00N 47°24' W 006°18'4 4.1 160 / 181000.1 11.7 12.7
2016-Apr-03 02:00N 47°24' W 006°12'0 0.0 170 / 141001.1 11.7 12.7
2016-Apr-03 01:00N 47°24' W 006°12'7 7.2 180 / 131001.8 11.4 12.7
2016-Apr-03 00:00N 47°18' W 006°06'0 0.0 190 / 191002.1 11.4 12.7
2016-Apr-02 23:00N 47°18' W 006°06'4 4.1 180 / 171002.9 11.7 12.5
2016-Apr-02 22:00N 47°18' W 006°00'0 0.0 170 / 221003.2 11.4 12.7
2016-Apr-02 21:00N 47°18' W 006°00'4 4.1 160 / 171003.6 11.4 12.7
2016-Apr-02 20:00N 47°18' W 005°54'4 4.1 150 / 151004.0 11.4 12.7
2016-Apr-02 19:00N 47°18' W 006°00'0 0.0 140 / 151004.1 10.9 12.7
2016-Apr-02 18:00N 47°18' W 006°00'0 0.0 170 / 191004.3 10.4 12.7
2016-Apr-02 16:00N 47°18' W 006°00'0 0.0 190 / 151005.3 9.9 12.7
2016-Apr-02 14:00N 47°18' W 006°00'0 0.0 170 / 121006.5 11.2 12.5
2016-Apr-02 13:00N 47°18' W 006°00'4 2.0 170 / 151007.0 11.2 12.7
2016-Apr-02 11:00N 47°18' W 005°54'4 4.1 170 / 151008.4 10.9 12.7
2016-Apr-02 10:00N 47°18' W 006°00'0 0.0 160 / 141009.2 11.2 12.7
2016-Apr-02 09:00N 47°18' W 006°00'0 0.0 170 / 141009.5 10.9 12.7
2016-Apr-02 08:00N 47°18' W 006°00'0 0.0 180 / 141009.7 11.0 12.7
2016-Apr-02 07:00N 47°18' W 006°00'4 4.1 180 / 151009.8 11.0 12.5
2016-Apr-02 06:00N 47°18' W 006°06'4 4.1 180 / 151009.6 11.2 12.7
2016-Apr-02 05:00N 47°18' W 006°12'8 4.1 190 / 171009.8 11.2 12.7
2016-Apr-02 03:00N 47°18' W 006°00'4 1.4 190 / 171011.5 11.7 12.5
2016-Apr-02 00:00N 47°18' W 005°54'4 4.1 190 / 171013.5 11.0 12.7
2016-Apr-01 23:00N 47°18' W 006°00'4 4.1 190 / 171014.1 11.0 12.5
2016-Apr-01 22:00N 47°18' W 006°06'4 2.0 170 / 191014.7 10.9 12.7
2016-Apr-01 20:00N 47°18' W 006°00'0 0.0 200 / 181015.4 11.0 12.7
2016-Apr-01 19:00N 47°18' W 006°00'0 0.0 180 / 161015.5 10.9 12.7
2016-Apr-01 18:00N 47°18' W 006°00'4 2.0 190 / 191015.7 11.2 12.5
2016-Apr-01 16:00N 47°18' W 006°06'0 0.0 200 / 161016.7 10.9 12.7
2016-Apr-01 15:00N 47°18' W 006°06'4 4.1 210 / 181017.6 11.0 12.7
2016-Apr-01 14:00N 47°18' W 006°12'4 4.1 200 / 171018.0 11.0 12.7
2016-Apr-01 13:00N 47°18' W 006°06'0 0.0 190 / 191018.8 11.0 12.7
2016-Apr-01 12:00N 47°18' W 006°06'4 4.1 200 / 181019.4 10.9 12.7
2016-Apr-01 11:00N 47°18' W 006°00'0 0.0 200 / 181019.9 10.9 12.5
2016-Apr-01 10:00N 47°18' W 006°00'0 0.0 190 / 181020.4 10.7 12.5
2016-Apr-01 09:00N 47°18' W 006°00'4 4.1 200 / 161020.6 10.7 12.7
2016-Apr-01 08:00N 47°18' W 005°54'4 4.1 200 / 141020.9 10.4 12.7
2016-Apr-01 07:00N 47°18' W 006°00'   200 / 131020.8 10.2 12.7

Dump ship's entire track history